Pagrindinis puslapis
METAR-TAF:

METAR-TAF

Oro uostai :

Pastas, Kolumbija

platuma: 01-25N, ilguma: 077-16W, Aukštis: 1826 m

Dabartinis oras

Ataskaita buvo paskelbta 1 valandą ir 7 minutes, ne 15:00 UTC
Vėjas 5 kt iš Šiaurės/Šiaurės Vakarų
Temperatūra 21°C
Drėgmė 60%
Slėgis 1024 hPa
Matomumas 10 km arba daugiau
Mažai debesys ne aukštis 2800 ft

METAR: SKPS 221500Z 34005KT 9999 FEW028 21/13 A3024

Laikas: 11:07 (16:07 UTC)


TAF: trūkstamas

Orai ataskaitas ir orų prognozės (METAR, TAF).

turimą stotys yra geltonos ir raudonos taškus žemėlapyje.

Perkelti pele per norėdami pamatyti stoties vardą.

Tada spustelėkite, norėdami matyti oro stebėjimo ir prognozės.

Norėdami pakeisti žemėlapį: spustelėkite ant žalios mygtukų su juodo kryžiaus žemyn,; žalią mygtuką su brūkšneliu, jei norite nutolinti; arba žalių rodyklių gretimoms žemėlapius.


METAR-TAF: